Time;durP1;ratioP1;P1;durP2;ratioP2;P2;SDS_P1;SDS_P2;PMS_P1;PMS_P2;Temp;Humidity;BMP_temperature;BMP_pressure;BME280_temperature;BME280_humidity;BME280_pressure;Samples;Min_cycle;Max_cycle;Signal;HPM_P1;HPM_P2
2023/11/26 00:01:58;;;;;;;1.00;0.70;;;;;;;0.44;87.81;100383.00;5088764;28;20241;-66
2023/11/26 00:04:40;;;;;;;0.80;0.60;;;;;;;0.40;87.56;100380.81;5060829;28;20228;-64
2023/11/26 00:07:29;;;;;;;1.30;0.73;;;;;;;0.35;86.98;100381.25;5075814;28;20681;-65
2023/11/26 00:10:22;;;;;;;0.80;0.50;;;;;;;0.32;87.25;100386.03;5088112;28;20207;-70
2023/11/26 00:13:16;;;;;;;1.20;1.00;;;;;;;0.38;87.84;100383.63;5076117;28;20193;-66
2023/11/26 00:16:05;;;;;;;0.90;0.60;;;;;;;0.38;88.21;100383.63;5096927;28;20201;-66
2023/11/26 00:18:51;;;;;;;1.30;0.80;;;;;;;0.53;88.80;100385.78;5071133;28;20704;-67
2023/11/26 00:21:37;;;;;;;0.80;0.50;;;;;;;0.46;87.97;100384.69;5067172;28;20187;-66
2023/11/26 00:24:21;;;;;;;0.80;0.50;;;;;;;0.36;87.91;100385.59;5086929;28;20670;-67
2023/11/26 00:27:01;;;;;;;1.38;0.80;;;;;;;0.40;88.17;100386.97;5091332;28;20205;-66
2023/11/26 00:29:45;;;;;;;2.17;1.05;;;;;;;0.51;87.87;100387.75;5088245;28;20191;-66
2023/11/26 00:33:02;;;;;;;2.60;1.33;;;;;;;0.39;88.21;100389.78;5100565;28;20203;-66
2023/11/26 00:35:47;;;;;;;1.00;0.70;;;;;;;0.40;88.00;100386.97;5078884;28;20268;-66
2023/11/26 00:38:27;;;;;;;1.52;0.77;;;;;;;0.39;87.73;100395.09;5088412;28;20618;-66
2023/11/26 00:41:14;;;;;;;0.90;0.50;;;;;;;0.36;88.23;100400.72;5073074;28;20187;-68
2023/11/26 00:43:54;;;;;;;1.45;1.20;;;;;;;0.36;86.71;100411.38;5087652;28;20215;-64
2023/11/26 00:46:51;;;;;;;1.70;1.60;;;;;;;0.35;87.03;100415.00;5093372;28;20206;-67
2023/11/26 00:49:40;;;;;;;6.15;0.70;;;;;;;0.35;86.49;100415.84;5075717;28;20268;-66
2023/11/26 00:55:18;;;;;;;0.80;0.50;;;;;;;0.44;86.47;100420.28;5107280;27;1326005;-66
2023/11/26 00:57:47;;;;;;;1.25;0.80;;;;;;;0.46;87.17;100432.63;5131857;28;20190;-66
2023/11/26 01:00:17;;;;;;;1.00;0.68;;;;;;;0.31;87.52;100433.09;5113651;28;20201;-66
2023/11/26 01:02:48;;;;;;;0.93;0.70;;;;;;;0.35;86.29;100431.81;5131680;28;20193;-65
2023/11/26 01:05:18;;;;;;;0.80;0.50;;;;;;;0.43;87.58;100431.94;5101803;28;20225;-66
2023/11/26 01:07:47;;;;;;;1.05;0.90;;;;;;;0.46;86.38;100432.63;5130181;27;20185;-67
2023/11/26 01:10:17;;;;;;;0.98;0.50;;;;;;;0.33;85.73;100438.28;5126453;28;20186;-65
2023/11/26 01:12:46;;;;;;;0.90;0.68;;;;;;;0.35;83.70;100447.78;5132551;28;20190;-67
2023/11/26 01:15:16;;;;;;;1.95;0.80;;;;;;;0.40;84.48;100450.00;5113224;28;20225;-65
2023/11/26 01:17:45;;;;;;;1.17;1.08;;;;;;;0.37;83.63;100453.81;5129264;28;20239;-65
2023/11/26 01:20:14;;;;;;;0.95;0.85;;;;;;;0.30;83.90;100447.41;5136520;27;20182;-65
2023/11/26 01:22:43;;;;;;;0.90;0.50;;;;;;;0.29;83.17;100456.34;5131109;28;20186;-64
2023/11/26 01:25:12;;;;;;;1.05;0.68;;;;;;;0.40;82.53;100460.66;5130437;27;20262;-67
2023/11/26 01:27:42;;;;;;;0.90;0.55;;;;;;;0.39;82.89;100456.31;5130984;28;20228;-65
2023/11/26 01:30:13;;;;;;;2.00;0.98;;;;;;;0.31;81.64;100456.22;5143969;27;20210;-66
2023/11/26 01:32:42;;;;;;;1.25;0.60;;;;;;;0.25;82.30;100449.66;5135524;27;20598;-65
2023/11/26 01:35:11;;;;;;;1.20;0.70;;;;;;;0.28;81.57;100446.72;5130499;27;20214;-65
2023/11/26 01:37:40;;;;;;;5.15;0.95;;;;;;;0.23;80.99;100448.16;5112748;28;20594;-65
2023/11/26 01:40:10;;;;;;;0.80;0.50;;;;;;;0.23;81.63;100448.16;5110745;28;20201;-66
2023/11/26 01:42:41;;;;;;;0.93;0.55;;;;;;;0.21;80.08;100450.94;5128075;28;20286;-66
2023/11/26 01:45:12;;;;;;;0.80;0.50;;;;;;;0.22;79.97;100452.63;5132718;27;20296;-67
2023/11/26 01:47:41;;;;;;;0.90;0.50;;;;;;;0.27;80.67;100450.38;5123327;27;20273;-67
2023/11/26 01:50:18;;;;;;;0.90;0.60;;;;;;;0.31;78.61;100461.53;5113509;28;20626;-66
2023/11/26 01:52:49;;;;;;;1.08;0.82;;;;;;;0.37;78.69;100460.97;5124258;28;20199;-66
2023/11/26 01:55:19;;;;;;;2.03;0.70;;;;;;;0.38;78.10;100458.16;5130530;27;20599;-66
2023/11/26 01:57:48;;;;;;;1.00;0.60;;;;;;;0.40;77.49;100455.34;5113787;28;20199;-67
2023/11/26 02:00:21;;;;;;;1.08;0.88;;;;;;;0.37;76.83;100467.13;5113206;28;20194;-65
2023/11/26 02:02:50;;;;;;;1.20;0.75;;;;;;;0.27;76.63;100461.00;5130946;28;20179;-67
2023/11/26 02:05:19;;;;;;;0.80;0.50;;;;;;;0.28;76.80;100461.84;5124766;27;20217;-67
2023/11/26 02:07:49;;;;;;;1.25;0.80;;;;;;;0.24;76.78;100461.28;5117788;28;20201;-66
2023/11/26 02:10:20;;;;;;;0.80;0.50;;;;;;;0.15;77.80;100462.16;5124537;27;20286;-66
2023/11/26 02:13:05;;;;;;;2.20;0.80;;;;;;;0.16;78.04;100463.00;5112102;28;20278;-66
2023/11/26 02:15:36;;;;;;;1.10;0.90;;;;;;;0.13;78.51;100458.81;5096732;28;20203;-66
2023/11/26 02:18:07;;;;;;;0.80;0.60;;;;;;;0.16;78.33;100458.53;5107594;28;20806;-65
2023/11/26 02:20:36;;;;;;;0.95;0.77;;;;;;;0.13;78.48;100465.97;5092713;28;20218;-66
2023/11/26 02:23:05;;;;;;;0.90;0.60;;;;;;;0.13;78.83;100464.16;5112759;28;20201;-66
2023/11/26 02:25:35;;;;;;;0.80;0.50;;;;;;;0.13;79.37;100474.78;5113866;28;20205;-65
2023/11/26 02:28:05;;;;;;;2.47;0.60;;;;;;;0.15;79.75;100472.81;5093582;28;20230;-66
2023/11/26 02:30:34;;;;;;;0.85;0.60;;;;;;;0.10;79.07;100469.75;5111253;28;20551;-66
2023/11/26 02:33:02;;;;;;;0.80;0.50;;;;;;;0.20;79.57;100481.19;5115479;28;20182;-66
2023/11/26 02:35:31;;;;;;;0.90;0.50;;;;;;;0.16;79.99;100479.81;5115284;28;20207;-65
2023/11/26 02:38:02;;;;;;;1.00;0.82;;;;;;;0.14;79.42;100476.47;5115292;28;20190;-66
2023/11/26 02:40:30;;;;;;;0.98;0.73;;;;;;;0.14;80.15;100487.13;5113747;28;20186;-66
2023/11/26 02:43:01;;;;;;;1.23;0.95;;;;;;;0.16;80.14;100479.81;5115227;28;20206;-66
2023/11/26 02:45:30;;;;;;;2.45;1.10;;;;;;;0.15;79.89;100483.44;5112097;27;20600;-66
2023/11/26 02:47:58;;;;;;;0.90;0.60;;;;;;;0.06;81.04;100489.63;5113034;28;20187;-65
2023/11/26 02:50:28;;;;;;;1.33;0.82;;;;;;;0.16;81.18;100490.44;5113653;28;20282;-66
2023/11/26 02:52:57;;;;;;;0.90;0.60;;;;;;;0.10;80.60;100495.53;5115221;28;20187;-66
2023/11/26 02:55:25;;;;;;;0.80;0.50;;;;;;;0.11;81.63;100495.38;5108781;28;20233;-66
2023/11/26 02:57:54;;;;;;;0.90;0.60;;;;;;;0.15;81.73;100499.41;5107519;28;20190;-66
2023/11/26 03:00:27;;;;;;;1.45;0.90;;;;;;;0.33;83.52;100504.84;5111980;28;20187;-65
2023/11/26 03:02:58;;;;;;;0.80;0.60;;;;;;;0.31;80.96;100504.13;5089729;28;20202;-66
2023/11/26 03:05:27;;;;;;;0.80;0.52;;;;;;;0.21;81.41;100498.84;5094718;28;20585;-67
2023/11/26 03:08:08;;;;;;;0.90;0.57;;;;;;;0.16;81.78;100500.25;5110158;28;20265;-67
2023/11/26 03:13:25;;;;;;;0.90;0.60;;;;;;;0.17;80.89;100497.47;5113541;27;20194;-66
2023/11/26 03:15:56;;;;;;;0.80;0.50;;;;;;;0.11;81.82;100506.00;5109777;28;20210;-65
2023/11/26 03:18:25;;;;;;;0.90;0.60;;;;;;;0.24;82.13;100509.19;5111869;28;20218;-65
2023/11/26 03:20:56;;;;;;;0.95;0.60;;;;;;;0.13;81.72;100505.88;5114849;28;20187;-65
2023/11/26 03:23:25;;;;;;;0.80;0.50;;;;;;;0.15;82.66;100510.06;5111111;28;20187;-65
2023/11/26 03:25:54;;;;;;;1.42;0.70;;;;;;;0.27;82.53;100513.38;5114523;28;20191;-65
2023/11/26 03:28:24;;;;;;;2.80;0.70;;;;;;;0.32;82.63;100506.66;5114763;28;20198;-67
2023/11/26 03:30:56;;;;;;;0.88;0.68;;;;;;;0.43;83.86;100513.63;5114465;28;20186;-66
2023/11/26 03:33:27;;;;;;;0.90;0.60;;;;;;;0.29;82.60;100522.88;5113043;28;20190;-66
2023/11/26 03:35:56;;;;;;;0.90;0.60;;;;;;;0.48;83.16;100515.84;5115735;28;20206;-66
2023/11/26 03:38:25;;;;;;;0.80;0.60;;;;;;;0.46;82.67;100517.81;5093769;28;20190;-66
2023/11/26 03:40:54;;;;;;;0.80;0.60;;;;;;;0.41;83.39;100516.41;5095198;28;20198;-65
2023/11/26 03:43:23;;;;;;;0.80;0.50;;;;;;;0.40;84.36;100511.22;5107820;28;20758;-67
2023/11/26 03:45:52;;;;;;;1.00;0.50;;;;;;;0.57;83.87;100521.13;5105087;28;20524;-66
2023/11/26 03:48:23;;;;;;;1.15;0.68;;;;;;;0.58;83.40;100512.13;5096760;28;20574;-66
2023/11/26 03:50:52;;;;;;;1.00;0.50;;;;;;;0.39;83.16;100513.06;5116702;28;20533;-66
2023/11/26 03:53:21;;;;;;;0.80;0.50;;;;;;;0.31;82.45;100518.28;5115062;28;20285;-66
2023/11/26 03:55:50;;;;;;;1.00;0.70;;;;;;;0.48;82.91;100510.53;5114295;28;20206;-67
2023/11/26 03:58:20;;;;;;;1.50;0.70;;;;;;;0.39;81.74;100517.53;5104709;28;20552;-64
2023/11/26 04:00:49;;;;;;;1.00;0.73;;;;;;;0.35;82.73;100519.66;5109764;28;20206;-65
2023/11/26 04:03:18;;;;;;;1.00;0.70;;;;;;;0.34;82.09;100525.97;5114491;28;20182;-65
2023/11/26 04:05:49;;;;;;;1.00;0.60;;;;;;;0.40;81.65;100527.19;5109964;28;20282;-65
2023/11/26 04:08:19;;;;;;;1.02;0.60;;;;;;;0.38;81.99;100532.69;5087904;28;20264;-66
2023/11/26 04:10:48;;;;;;;2.58;1.02;;;;;;;0.30;83.50;100529.91;5112724;28;20191;-66
2023/11/26 04:13:18;;;;;;;1.10;0.60;;;;;;;0.37;82.86;100528.34;5113681;28;20183;-66
2023/11/26 04:15:54;;;;;;;1.55;0.73;;;;;;;0.40;83.53;100530.72;5110988;28;20198;-65
2023/11/26 04:18:24;;;;;;;1.20;0.80;;;;;;;0.48;84.48;100534.47;5112077;28;20676;-66
2023/11/26 04:20:55;;;;;;;1.33;0.80;;;;;;;0.51;82.56;100537.69;5113495;28;20681;-66
2023/11/26 04:23:33;;;;;;;1.13;0.60;;;;;;;0.46;83.16;100539.94;5113276;28;20576;-67
2023/11/26 04:26:02;;;;;;;0.80;0.50;;;;;;;0.42;83.24;100541.22;4973441;28;20207;-66
2023/11/26 04:28:31;;;;;;;0.90;0.70;;;;;;;0.33;84.48;100534.94;4974127;28;20294;-66
2023/11/26 04:31:00;;;;;;;1.10;0.70;;;;;;;0.54;84.80;100547.19;4974137;28;20217;-66
2023/11/26 04:33:29;;;;;;;1.02;0.88;;;;;;;0.42;83.95;100543.88;4983473;28;20191;-66
2023/11/26 04:36:00;;;;;;;0.90;0.60;;;;;;;0.57;84.42;100544.25;4975109;28;20221;-66
2023/11/26 04:38:28;;;;;;;1.30;0.90;;;;;;;0.69;83.18;100549.22;4974391;28;20194;-66
2023/11/26 04:40:56;;;;;;;0.90;0.75;;;;;;;0.65;83.49;100547.84;4978664;28;20195;-66
2023/11/26 04:43:26;;;;;;;1.33;1.23;;;;;;;0.49;83.70;100554.75;4977465;28;20222;-67
2023/11/26 04:45:55;;;;;;;1.98;1.38;;;;;;;0.54;84.10;100555.16;4972731;28;20246;-66
2023/11/26 04:48:23;;;;;;;1.02;0.60;;;;;;;0.67;83.63;100558.34;4969134;28;20196;-65
2023/11/26 04:50:52;;;;;;;1.20;0.70;;;;;;;0.53;84.96;100557.03;4974364;28;20203;-66
2023/11/26 04:53:23;;;;;;;1.00;0.75;;;;;;;0.65;85.11;100561.16;4974888;28;20195;-65
2023/11/26 04:55:52;;;;;;;1.15;0.88;;;;;;;0.64;84.78;100561.31;4976505;28;20203;-67
2023/11/26 04:58:22;;;;;;;1.40;0.80;;;;;;;0.78;85.38;100566.97;4981573;28;20686;-67
2023/11/26 05:00:51;;;;;;;2.08;1.08;;;;;;;0.76;85.38;100566.31;4973950;28;20222;-66
2023/11/26 05:03:22;;;;;;;1.45;1.15;;;;;;;0.76;85.03;100568.97;4973768;28;20278;-65
2023/11/26 05:05:51;;;;;;;2.45;1.25;;;;;;;0.72;85.37;100572.06;4973643;28;20207;-66
2023/11/26 05:08:20;;;;;;;1.40;1.05;;;;;;;0.70;85.66;100564.22;4981674;28;20688;-67
2023/11/26 05:10:50;;;;;;;0.98;0.70;;;;;;;0.74;86.24;100572.75;4973759;28;20199;-66
2023/11/26 05:13:19;;;;;;;0.88;0.60;;;;;;;0.72;86.81;100570.25;4979473;28;20192;-66
2023/11/26 05:15:48;;;;;;;1.00;0.65;;;;;;;0.65;87.73;100573.63;4971307;28;20273;-67
2023/11/26 05:18:17;;;;;;;1.30;0.75;;;;;;;0.55;89.24;100581.66;4965831;28;20246;-65
2023/11/26 05:20:47;;;;;;;1.10;0.82;;;;;;;0.63;89.37;100571.09;4977484;28;20198;-66
2023/11/26 05:23:16;;;;;;;0.82;0.55;;;;;;;0.56;89.65;100578.03;4965784;28;20200;-65
2023/11/26 05:25:46;;;;;;;1.10;0.77;;;;;;;0.56;90.08;100582.50;4976946;28;20677;-65
2023/11/26 05:28:16;;;;;;;1.13;0.80;;;;;;;0.49;90.92;100581.38;4965684;28;20294;-65
2023/11/26 05:30:47;;;;;;;1.08;0.75;;;;;;;0.56;91.08;100582.50;4969820;28;20206;-66
2023/11/26 05:33:16;;;;;;;1.20;0.80;;;;;;;0.44;90.47;100590.66;4967707;28;20192;-69
2023/11/26 05:35:45;;;;;;;1.25;0.60;;;;;;;0.55;90.46;100575.50;4981311;28;20207;-66
2023/11/26 05:38:14;;;;;;;1.02;0.68;;;;;;;0.52;90.63;100581.97;4976714;28;20693;-66
2023/11/26 05:40:43;;;;;;;1.90;1.10;;;;;;;0.50;90.61;100580.41;4971215;28;20192;-66
2023/11/26 05:43:12;;;;;;;1.48;0.60;;;;;;;0.47;91.03;100588.69;4977240;28;20262;-67
2023/11/26 05:45:43;;;;;;;5.70;1.08;;;;;;;0.48;91.00;100590.38;4980786;28;20188;-65
2023/11/26 05:48:12;;;;;;;1.48;1.23;;;;;;;0.39;91.71;100590.25;4975510;28;20274;-65
2023/11/26 05:50:41;;;;;;;5.72;1.20;;;;;;;0.37;91.91;100589.56;4977444;28;20200;-65
2023/11/26 05:53:11;;;;;;;1.20;1.00;;;;;;;0.33;92.54;100592.66;4985244;28;20207;-66
2023/11/26 05:55:41;;;;;;;1.10;0.98;;;;;;;0.14;93.88;100598.88;4968933;28;20191;-65
2023/11/26 05:58:09;;;;;;;0.90;0.68;;;;;;;0.18;93.95;100594.09;4978067;28;20237;-65
2023/11/26 06:00:38;;;;;;;1.65;0.85;;;;;;;0.13;94.78;100597.19;4979330;28;20738;-64
2023/11/26 06:03:09;;;;;;;0.80;0.50;;;;;;;0.01;96.43;100606.28;4982019;28;20226;-65
2023/11/26 06:05:37;;;;;;;0.90;0.60;;;;;;;0.02;97.11;100604.47;4989168;28;20221;-66
2023/11/26 06:08:06;;;;;;;1.00;0.63;;;;;;;-0.03;98.47;100597.75;4979670;28;20690;-65
2023/11/26 06:10:35;;;;;;;1.00;0.70;;;;;;;-0.07;100.00;100607.00;4975972;28;20219;-67
2023/11/26 06:13:04;;;;;;;1.20;0.77;;;;;;;-0.27;100.00;100600.00;4979002;28;20190;-66
2023/11/26 06:15:33;;;;;;;5.03;0.70;;;;;;;-0.29;100.00;100603.78;4984800;28;20226;-65
2023/11/26 06:18:03;;;;;;;1.13;0.60;;;;;;;-0.28;100.00;100613.44;4972715;28;20242;-65
2023/11/26 06:20:33;;;;;;;0.90;0.60;;;;;;;-0.35;100.00;100612.31;4975245;28;20195;-66
2023/11/26 06:23:02;;;;;;;1.15;0.90;;;;;;;-0.47;100.00;100615.09;4984387;28;20254;-64
2023/11/26 06:25:31;;;;;;;1.95;0.95;;;;;;;-0.58;100.00;100622.38;4985783;28;20222;-66
2023/11/26 06:28:00;;;;;;;0.80;0.60;;;;;;;-0.50;100.00;100617.19;4987085;28;20194;-65
2023/11/26 06:30:29;;;;;;;1.55;0.63;;;;;;;-0.57;100.00;100621.38;4974613;28;20203;-66
2023/11/26 06:32:58;;;;;;;1.60;1.40;;;;;;;-0.54;100.00;100629.94;4977711;28;20203;-63
2023/11/26 06:35:28;;;;;;;1.23;0.70;;;;;;;-0.63;100.00;100625.41;4978539;28;20215;-65
2023/11/26 06:38:01;;;;;;;2.00;1.15;;;;;;;-0.70;100.00;100634.94;4976178;28;20226;-65
2023/11/26 06:40:30;;;;;;;1.65;1.02;;;;;;;-0.80;100.00;100623.44;4966542;28;20201;-66
2023/11/26 06:42:59;;;;;;;1.25;0.63;;;;;;;-0.83;100.00;100629.03;4977517;28;20670;-66
2023/11/26 06:45:28;;;;;;;0.90;0.68;;;;;;;-0.87;100.00;100627.59;4982557;28;20216;-66
2023/11/26 06:47:57;;;;;;;0.80;0.50;;;;;;;-0.95;100.00;100632.75;4988533;28;20681;-64
2023/11/26 06:50:26;;;;;;;1.52;1.05;;;;;;;-0.94;100.00;100642.41;4977808;28;20270;-66
2023/11/26 06:52:55;;;;;;;1.48;0.80;;;;;;;-1.04;100.00;100637.06;4987879;28;20192;-66
2023/11/26 06:55:25;;;;;;;0.80;0.60;;;;;;;-1.00;100.00;100637.63;4976026;28;20242;-65
2023/11/26 06:57:54;;;;;;;1.77;1.67;;;;;;;-1.09;100.00;100638.44;4975041;28;20261;-66
2023/11/26 07:00:22;;;;;;;1.77;1.27;;;;;;;-1.09;100.00;100639.28;4977854;28;20689;-65
2023/11/26 07:02:51;;;;;;;1.45;1.35;;;;;;;-1.06;100.00;100643.47;4979528;28;20218;-64
2023/11/26 07:05:21;;;;;;;1.15;0.93;;;;;;;-1.05;100.00;100650.47;4999739;28;20250;-65
2023/11/26 07:07:50;;;;;;;1.65;1.50;;;;;;;-1.17;100.00;100647.09;4979154;28;20199;-66
2023/11/26 07:10:19;;;;;;;4.60;1.33;;;;;;;-1.24;100.00;100650.38;4973913;28;20200;-64
2023/11/26 07:12:50;;;;;;;0.90;0.70;;;;;;;-1.28;100.00;100654.28;4981329;28;20266;-65
2023/11/26 07:15:19;;;;;;;1.65;1.17;;;;;;;-1.19;100.00;100653.47;4976565;28;20223;-67
2023/11/26 07:17:48;;;;;;;0.82;0.60;;;;;;;-1.36;100.00;100663.75;4975319;28;20302;-66
2023/11/26 07:20:17;;;;;;;1.48;0.75;;;;;;;-1.24;100.00;100661.00;4978361;28;20628;-65
2023/11/26 07:22:46;;;;;;;1.75;1.35;;;;;;;-1.26;100.00;100663.81;4973799;28;20191;-65
2023/11/26 07:25:16;;;;;;;1.27;1.08;;;;;;;-1.19;100.00;100664.94;4972692;28;20227;-64
2023/11/26 07:27:45;;;;;;;1.45;1.30;;;;;;;-1.13;100.00;100664.41;4981016;28;20218;-65
2023/11/26 07:30:17;;;;;;;1.33;0.70;;;;;;;-1.16;100.00;100679.78;4979330;28;20206;-65
2023/11/26 07:32:46;;;;;;;1.33;1.10;;;;;;;-1.26;100.00;100673.59;4975186;28;20192;-64
2023/11/26 07:35:15;;;;;;;1.58;1.48;;;;;;;-1.18;100.00;100681.72;4977021;28;20262;-64
2023/11/26 07:37:44;;;;;;;1.15;1.02;;;;;;;-1.10;100.00;100681.88;4977787;28;20701;-67
2023/11/26 07:40:14;;;;;;;1.40;1.30;;;;;;;-0.94;100.00;100679.59;4971929;28;20192;-66
2023/11/26 07:42:46;;;;;;;1.08;0.73;;;;;;;-0.93;100.00;100687.44;4978575;28;20184;-66
2023/11/26 07:45:17;;;;;;;1.75;1.00;;;;;;;-0.90;100.00;100681.84;4980562;28;20218;-66
2023/11/26 07:47:46;;;;;;;3.38;2.00;;;;;;;-0.88;100.00;100679.06;4970228;28;20192;-65
2023/11/26 07:50:15;;;;;;;1.08;0.95;;;;;;;-0.82;100.00;100685.66;4980436;28;20214;-66
2023/11/26 07:52:44;;;;;;;3.45;0.80;;;;;;;-0.77;100.00;100686.91;4976627;28;20186;-66
2023/11/26 07:55:13;;;;;;;1.90;1.60;;;;;;;-0.78;100.00;100685.25;4978058;28;20215;-66
2023/11/26 07:57:42;;;;;;;1.60;1.50;;;;;;;-0.74;100.00;100686.66;4976668;28;20204;-66
2023/11/26 08:00:14;;;;;;;2.67;0.77;;;;;;;-0.68;100.00;100691.44;4978772;28;20225;-65
2023/11/26 08:02:46;;;;;;;1.42;0.95;;;;;;;-0.59;100.00;100689.78;4978143;28;20587;-66
2023/11/26 08:05:18;;;;;;;0.80;0.50;;;;;;;-0.59;100.00;100685.31;4981611;28;20231;-65
2023/11/26 08:07:47;;;;;;;1.80;1.25;;;;;;;-0.56;100.00;100685.03;4973896;28;20725;-65
2023/11/26 08:10:20;;;;;;;1.55;1.23;;;;;;;-0.56;100.00;100685.03;4981176;28;20246;-65
2023/11/26 08:12:50;;;;;;;1.50;0.90;;;;;;;-0.61;100.00;100687.25;4976504;28;20246;-65
2023/11/26 08:15:20;;;;;;;0.90;0.60;;;;;;;-0.39;100.00;100685.38;4980015;28;20583;-66
2023/11/26 08:17:50;;;;;;;1.00;0.88;;;;;;;-0.44;100.00;100697.22;4980268;28;20299;-66
2023/11/26 08:20:21;;;;;;;2.65;0.95;;;;;;;-0.38;100.00;100695.00;4980427;28;20187;-67
2023/11/26 08:22:51;;;;;;;0.90;0.70;;;;;;;-0.38;100.00;100692.34;4978349;28;20195;-67
2023/11/26 08:25:23;;;;;;;1.42;1.33;;;;;;;-0.25;100.00;100684.97;4975633;28;20231;-64
2023/11/26 08:27:53;;;;;;;1.00;0.60;;;;;;;-0.34;98.37;100694.63;4975524;28;20191;-68
2023/11/26 08:30:39;;;;;;;2.72;1.35;;;;;;;-0.19;97.77;100690.56;4985330;28;20251;-65
2023/11/26 08:33:10;;;;;;;0.80;0.60;;;;;;;-0.40;96.32;100694.31;4974980;28;20265;-65
2023/11/26 08:35:41;;;;;;;1.13;1.02;;;;;;;-0.27;96.42;100694.88;4975588;28;20280;-65
2023/11/26 08:38:10;;;;;;;0.90;0.70;;;;;;;-0.31;95.21;100693.47;4974273;28;20214;-66
2023/11/26 08:40:42;;;;;;;1.50;0.93;;;;;;;-0.36;94.86;100706.34;4973946;28;20195;-66
2023/11/26 08:43:13;;;;;;;1.00;0.88;;;;;;;-0.09;95.52;100701.19;4974112;28;20557;-66
2023/11/26 08:45:43;;;;;;;0.80;0.60;;;;;;;-0.03;93.83;100703.31;4973961;28;20661;-65
2023/11/26 08:48:14;;;;;;;1.90;1.70;;;;;;;0.06;93.93;100702.47;4965164;28;20272;-66
2023/11/26 08:50:43;;;;;;;1.30;0.95;;;;;;;0.17;93.75;100704.16;4974573;28;20260;-66
2023/11/26 08:53:13;;;;;;;1.48;1.17;;;;;;;0.08;92.06;100711.19;4973974;28;20199;-64
2023/11/26 08:55:42;;;;;;;9.18;2.00;;;;;;;0.09;92.08;100718.19;4983474;28;20197;-66
2023/11/26 08:58:11;;;;;;;0.90;0.77;;;;;;;0.26;92.21;100719.28;4976818;28;20736;-65
2023/11/26 09:00:40;;;;;;;1.27;1.17;;;;;;;0.28;90.93;100725.31;4975064;28;20218;-65
2023/11/26 09:03:08;;;;;;;2.58;2.35;;;;;;;0.26;90.50;100732.59;4984204;28;20195;-65
2023/11/26 09:05:39;;;;;;;1.65;0.70;;;;;;;0.33;89.45;100721.28;4980165;28;20200;-64
2023/11/26 09:08:09;;;;;;;0.93;0.82;;;;;;;0.39;89.71;100731.31;4970265;28;20206;-66
2023/11/26 09:10:38;;;;;;;1.02;0.80;;;;;;;0.47;89.07;100727.13;4974868;28;20219;-68
2023/11/26 09:13:07;;;;;;;1.35;1.08;;;;;;;0.44;87.62;100726.41;4976255;28;20237;-67
2023/11/26 09:15:38;;;;;;;1.73;1.38;;;;;;;0.60;88.35;100731.19;4975380;28;20219;-67
2023/11/26 09:18:07;;;;;;;1.02;0.75;;;;;;;0.85;85.96;100729.75;4977646;28;20235;-65
2023/11/26 09:20:37;;;;;;;1.30;0.90;;;;;;;0.95;84.74;100725.22;4980585;28;20202;-66
2023/11/26 09:23:07;;;;;;;0.90;0.80;;;;;;;1.04;84.52;100726.19;4985720;28;20223;-65
2023/11/26 09:25:37;;;;;;;1.00;0.85;;;;;;;0.83;83.47;100727.22;4978717;28;20211;-67
2023/11/26 09:28:05;;;;;;;1.95;1.23;;;;;;;0.59;85.62;100726.81;4977594;28;20716;-65
2023/11/26 09:30:35;;;;;;;2.75;1.40;;;;;;;0.81;84.75;100728.34;4981384;28;20199;-66
2023/11/26 09:33:04;;;;;;;1.35;1.23;;;;;;;0.89;84.83;100736.47;4978887;28;20195;-65
2023/11/26 09:35:33;;;;;;;2.65;0.80;;;;;;;0.65;82.95;100730.75;4981420;28;20686;-66
2023/11/26 09:38:04;;;;;;;2.28;2.17;;;;;;;0.53;82.55;100738.06;4977142;28;20207;-66
2023/11/26 09:40:33;;;;;;;1.35;1.00;;;;;;;0.74;83.30;100737.88;4979514;28;20207;-64
2023/11/26 09:43:04;;;;;;;1.30;1.20;;;;;;;0.71;82.13;100730.19;4979864;28;20202;-66
2023/11/26 09:45:33;;;;;;;0.80;0.60;;;;;;;0.53;83.06;100727.41;4985405;28;20215;-65
2023/11/26 09:48:03;;;;;;;1.00;0.90;;;;;;;0.68;81.93;100735.78;4988159;28;20242;-65
2023/11/26 09:50:32;;;;;;;1.13;0.98;;;;;;;0.65;81.37;100736.06;4970991;28;20255;-65
2023/11/26 09:53:04;;;;;;;1.50;1.40;;;;;;;0.75;82.29;100734.25;4977432;28;20663;-65
2023/11/26 09:55:39;;;;;;;5.22;1.48;;;;;;;0.71;80.91;100740.84;4978241;28;20219;-65
2023/11/26 09:58:09;;;;;;;1.40;0.90;;;;;;;0.75;79.88;100735.09;4978550;28;20207;-65
2023/11/26 10:00:38;;;;;;;1.45;1.13;;;;;;;0.93;80.28;100729.84;4978178;28;20187;-66
2023/11/26 10:03:07;;;;;;;1.08;0.75;;;;;;;1.06;79.50;100733.06;4984850;28;20199;-65
2023/11/26 10:05:36;;;;;;;1.52;1.42;;;;;;;1.09;79.82;100730.09;4977897;28;20277;-67
2023/11/26 10:08:08;;;;;;;2.80;1.73;;;;;;;1.10;78.48;100737.09;4987263;28;20227;-64
2023/11/26 10:10:50;;;;;;;0.90;0.80;;;;;;;1.06;79.39;100735.72;4974187;28;20195;-67
2023/11/26 10:13:19;;;;;;;8.70;1.85;;;;;;;1.00;78.13;100730.97;4981359;28;20222;-65
2023/11/26 10:15:48;;;;;;;1.80;1.55;;;;;;;1.06;79.42;100738.38;4979115;28;20196;-65
2023/11/26 10:18:18;;;;;;;2.08;1.25;;;;;;;1.20;78.12;100737.06;4974078;28;20215;-65
2023/11/26 10:21:03;;;;;;;1.17;0.82;;;;;;;1.48;77.82;100736.13;4980462;28;20209;-67
2023/11/26 10:23:36;;;;;;;0.80;0.60;;;;;;;1.36;76.24;100737.28;4980512;28;20596;-65
2023/11/26 10:26:17;;;;;;;3.38;0.75;;;;;;;1.29;76.10;100739.72;4980574;28;20202;-67
2023/11/26 10:29:03;;;;;;;1.65;0.70;;;;;;;1.24;75.91;100744.63;4979302;28;20275;-67
2023/11/26 10:31:33;;;;;;;0.85;0.60;;;;;;;1.45;75.89;100741.75;4980521;28;20206;-64
2023/11/26 10:34:13;;;;;;;0.80;0.57;;;;;;;1.48;74.56;100735.28;4976346;28;20207;-64
2023/11/26 10:36:43;;;;;;;1.48;1.38;;;;;;;1.36;74.46;100741.75;4976467;28;20191;-66
2023/11/26 10:39:14;;;;;;;1.90;1.00;;;;;;;1.36;75.31;100739.09;4975996;28;20215;-66
2023/11/26 10:41:47;;;;;;;2.25;1.35;;;;;;;1.33;74.49;100736.75;4987842;28;20203;-65
2023/11/26 10:44:18;;;;;;;0.90;0.80;;;;;;;1.46;74.50;100737.22;4980269;28;20215;-64
2023/11/26 10:46:48;;;;;;;1.00;0.60;;;;;;;1.51;74.34;100729.63;4976094;28;20202;-66
2023/11/26 10:49:24;;;;;;;1.33;0.70;;;;;;;1.52;74.87;100733.97;4974875;28;20662;-66
2023/11/26 10:52:07;;;;;;;2.28;1.33;;;;;;;1.68;73.84;100735.03;4976352;28;20195;-65
2023/11/26 10:54:48;;;;;;;1.17;0.90;;;;;;;1.86;72.50;100735.06;4973030;28;20231;-65
2023/11/26 10:57:26;;;;;;;0.80;0.50;;;;;;;1.85;72.66;100738.72;4977393;28;20225;-66
2023/11/26 10:59:59;;;;;;;3.25;1.17;;;;;;;1.66;72.36;100736.16;4980007;28;20203;-66
2023/11/26 11:02:32;;;;;;;0.90;0.70;;;;;;;1.59;73.67;100727.09;4976182;28;20227;-67
2023/11/26 11:05:01;;;;;;;1.80;1.05;;;;;;;1.78;72.87;100732.31;4981525;28;20219;-66
2023/11/26 11:07:32;;;;;;;1.48;1.38;;;;;;;1.70;72.09;100730.38;4974802;28;20222;-65
2023/11/26 11:10:12;;;;;;;1.33;0.70;;;;;;;1.46;73.60;100737.22;4975892;28;20194;-65
2023/11/26 11:12:52;;;;;;;1.30;0.70;;;;;;;1.38;73.63;100729.97;4974163;28;20199;-66
2023/11/26 11:15:23;;;;;;;1.45;0.80;;;;;;;1.52;73.06;100732.16;4976096;28;20759;-65
2023/11/26 11:17:52;;;;;;;1.13;0.70;;;;;;;1.72;72.75;100741.75;4977910;28;20194;-66
2023/11/26 11:20:41;;;;;;;1.80;1.00;;;;;;;1.84;72.79;100730.88;4982127;28;20203;-66
2023/11/26 11:23:32;;;;;;;0.90;0.80;;;;;;;2.25;71.79;100735.63;4978715;28;20568;-67
2023/11/26 11:26:03;;;;;;;2.88;1.40;;;;;;;2.02;71.01;100721.06;4974939;28;20191;-67
2023/11/26 11:28:40;;;;;;;1.10;0.90;;;;;;;1.78;70.59;100732.31;4975763;28;20198;-66
2023/11/26 11:31:10;;;;;;;1.25;0.77;;;;;;;1.54;71.79;100724.03;4974473;28;20195;-67
2023/11/26 11:34:19;;;;;;;0.90;0.60;;;;;;;1.64;71.22;100736.31;4977494;28;20277;-65
2023/11/26 11:36:52;;;;;;;2.55;0.90;;;;;;;1.56;71.17;100730.03;4974556;28;20242;-67
2023/11/26 11:39:25;;;;;;;1.17;1.08;;;;;;;1.51;71.90;100732.28;4977258;28;20568;-66
2023/11/26 11:42:12;;;;;;;1.17;0.93;;;;;;;1.62;71.88;100732.09;4972023;28;20586;-66
2023/11/26 11:44:43;;;;;;;2.85;1.45;;;;;;;1.78;71.67;100721.63;4968397;28;20268;-66
2023/11/26 11:47:13;;;;;;;1.00;0.90;;;;;;;2.04;72.01;100727.91;4978334;28;20278;-65
2023/11/26 11:50:16;;;;;;;1.55;1.45;;;;;;;2.11;71.83;100739.69;4971744;28;20712;-67
2023/11/26 11:52:54;;;;;;;0.80;0.60;;;;;;;1.95;69.88;100734.16;4956883;28;20678;-64
2023/11/26 11:55:35;;;;;;;0.98;0.60;;;;;;;1.66;70.83;100739.66;4962826;28;20230;-66
2023/11/26 11:58:13;;;;;;;0.80;0.50;;;;;;;1.72;72.15;100733.75;4966563;28;20203;-66